createdAt,value
2023-04-29T00:00:31.476Z,11.91
2023-04-29T00:01:31.454Z,11.88
2023-04-29T00:02:32.084Z,11.88
2023-04-29T00:03:31.624Z,11.83
2023-04-29T00:04:31.571Z,11.85
2023-04-29T00:05:31.556Z,11.82
2023-04-29T00:06:31.661Z,11.79
2023-04-29T00:07:31.445Z,11.79
2023-04-29T00:08:31.391Z,11.78
2023-04-29T00:09:31.326Z,11.75
2023-04-29T00:10:31.327Z,11.75
2023-04-29T00:11:31.276Z,11.72
2023-04-29T00:12:31.278Z,11.70
2023-04-29T00:13:31.291Z,11.67
2023-04-29T00:14:31.238Z,11.69
2023-04-29T00:15:31.227Z,11.62
2023-04-29T00:16:31.251Z,11.61
2023-04-29T00:17:31.305Z,11.62
2023-04-29T00:18:31.176Z,11.58
2023-04-29T00:19:31.167Z,11.58
2023-04-29T00:20:31.162Z,11.60
2023-04-29T00:21:31.133Z,11.60
2023-04-29T00:22:31.128Z,11.58
2023-04-29T00:23:31.110Z,11.57
2023-04-29T00:24:31.115Z,11.55
2023-04-29T00:25:31.116Z,11.52
2023-04-29T00:26:31.063Z,11.47
2023-04-29T00:27:31.096Z,11.46
2023-04-29T00:28:31.053Z,11.42
2023-04-29T00:29:31.039Z,11.40
2023-04-29T00:30:31.023Z,11.40
2023-04-29T00:31:31.089Z,11.40
2023-04-29T00:32:30.978Z,11.37
2023-04-29T00:33:31.013Z,11.37
2023-04-29T00:34:31.017Z,11.37
2023-04-29T00:35:30.971Z,11.37
2023-04-29T00:36:30.956Z,11.40
2023-04-29T00:37:30.941Z,11.39
2023-04-29T00:38:30.906Z,11.39
2023-04-29T00:39:30.895Z,11.37
2023-04-29T00:40:30.945Z,11.39
2023-04-29T00:41:30.851Z,11.39
2023-04-29T00:42:30.863Z,11.37
2023-04-29T00:43:30.822Z,11.36
2023-04-29T00:44:30.816Z,11.37
2023-04-29T00:45:30.821Z,11.37
2023-04-29T00:46:30.847Z,11.33
2023-04-29T00:47:30.804Z,11.35
2023-04-29T00:48:30.762Z,11.32
2023-04-29T00:49:30.731Z,11.32
2023-04-29T00:50:30.773Z,11.29
2023-04-29T00:51:30.741Z,11.32
2023-04-29T00:52:30.745Z,11.29
2023-04-29T00:53:30.713Z,11.32
2023-04-29T00:54:30.705Z,11.25
2023-04-29T00:55:30.707Z,11.27
2023-04-29T00:56:30.641Z,11.25
2023-04-29T00:57:30.633Z,11.24
2023-04-29T00:58:30.709Z,11.24
2023-04-29T00:59:30.616Z,11.24
2023-04-29T01:00:30.584Z,11.27
2023-04-29T01:01:30.631Z,11.21
2023-04-29T01:02:30.654Z,11.17
2023-04-29T01:03:30.699Z,11.11
2023-04-29T01:04:30.614Z,11.09
2023-04-29T01:05:30.539Z,11.07
2023-04-29T01:06:30.508Z,11.07
2023-04-29T01:07:30.482Z,11.09
2023-04-29T01:08:30.498Z,11.06
2023-04-29T01:09:30.447Z,11.07
2023-04-29T01:10:30.451Z,11.04
2023-04-29T01:11:30.461Z,11.07
2023-04-29T01:12:30.429Z,11.07
2023-04-29T01:13:30.411Z,11.04
2023-04-29T01:14:30.408Z,11.04
2023-04-29T01:15:30.369Z,11.02
2023-04-29T01:16:30.446Z,11.02
2023-04-29T01:17:30.440Z,10.97
2023-04-29T01:18:30.445Z,10.99
2023-04-29T01:19:30.331Z,10.94
2023-04-29T01:20:30.335Z,10.88
2023-04-29T01:21:30.286Z,10.92
2023-04-29T01:22:30.312Z,10.89
2023-04-29T01:23:30.269Z,10.89
2023-04-29T01:24:30.241Z,10.88
2023-04-29T01:25:30.246Z,10.88
2023-04-29T01:26:30.200Z,10.82
2023-04-29T01:27:30.240Z,10.82
2023-04-29T01:28:30.212Z,10.85
2023-04-29T01:29:30.189Z,10.79
2023-04-29T01:30:30.182Z,10.78
2023-04-29T01:31:30.202Z,10.76
2023-04-29T01:32:30.178Z,10.76
2023-04-29T01:33:30.135Z,10.73
2023-04-29T01:34:30.115Z,10.76
2023-04-29T01:35:30.098Z,10.74
2023-04-29T01:36:30.152Z,10.74
2023-04-29T01:37:30.074Z,10.76
2023-04-29T01:38:30.071Z,10.76
2023-04-29T01:39:30.047Z,10.73
2023-04-29T01:40:30.028Z,10.71
2023-04-29T01:41:30.042Z,10.67
2023-04-29T01:42:30.072Z,10.63
2023-04-29T01:43:29.975Z,10.63
2023-04-29T01:44:30.016Z,10.61
2023-04-29T01:45:30.009Z,10.60
2023-04-29T01:46:30.049Z,10.53
2023-04-29T01:47:30.003Z,10.53
2023-04-29T01:48:29.985Z,10.48
2023-04-29T01:49:29.949Z,10.47
2023-04-29T01:50:29.898Z,10.45
2023-04-29T01:51:29.909Z,10.42
2023-04-29T01:52:29.853Z,10.41
2023-04-29T01:53:29.850Z,10.42
2023-04-29T01:54:29.859Z,10.38
2023-04-29T01:55:29.855Z,10.36
2023-04-29T01:56:29.808Z,10.32
2023-04-29T01:57:29.845Z,10.30
2023-04-29T01:58:29.785Z,10.29
2023-04-29T01:59:31.495Z,10.32
2023-04-29T02:00:29.814Z,10.29
2023-04-29T02:01:29.723Z,10.32
2023-04-29T02:02:29.770Z,10.32
2023-04-29T02:03:29.793Z,10.32
2023-04-29T02:04:29.749Z,10.33
2023-04-29T02:05:29.674Z,10.29
2023-04-29T02:06:29.681Z,10.32
2023-04-29T02:07:29.684Z,10.29
2023-04-29T02:08:29.680Z,10.32
2023-04-29T02:09:29.673Z,10.33
2023-04-29T02:10:29.641Z,10.33
2023-04-29T02:11:29.613Z,10.34
2023-04-29T02:12:29.657Z,10.34
2023-04-29T02:13:29.571Z,10.33
2023-04-29T02:14:29.561Z,10.33
2023-04-29T02:15:29.545Z,10.33
2023-04-29T02:16:29.633Z,10.33
2023-04-29T02:17:29.591Z,10.34
2023-04-29T02:18:29.624Z,10.32
2023-04-29T02:19:29.514Z,10.34
2023-04-29T02:20:29.499Z,10.40
2023-04-29T02:21:29.501Z,10.36
2023-04-29T02:22:29.482Z,10.38
2023-04-29T02:23:29.445Z,10.34
2023-04-29T02:24:29.463Z,10.34
2023-04-29T02:25:29.436Z,10.34
2023-04-29T02:26:29.452Z,10.33
2023-04-29T02:27:29.380Z,10.27
2023-04-29T02:28:29.412Z,10.29
2023-04-29T02:29:29.360Z,10.29
2023-04-29T02:30:29.373Z,10.27
2023-04-29T02:31:29.500Z,10.29
2023-04-29T02:32:29.404Z,10.32
2023-04-29T02:33:29.311Z,10.32
2023-04-29T02:34:29.327Z,10.29
2023-04-29T02:35:29.315Z,10.29
2023-04-29T02:36:29.295Z,10.26
2023-04-29T02:37:29.263Z,10.27
2023-04-29T02:38:29.271Z,10.25
2023-04-29T02:39:29.250Z,10.23
2023-04-29T02:40:29.218Z,10.23
2023-04-29T02:41:29.249Z,10.17
2023-04-29T02:42:29.235Z,10.15
2023-04-29T02:43:29.209Z,10.18
2023-04-29T02:44:29.186Z,10.20
2023-04-29T02:45:29.352Z,10.17
2023-04-29T02:46:29.365Z,10.14
2023-04-29T02:47:29.137Z,10.18
2023-04-29T02:48:29.137Z,10.14
2023-04-29T02:49:29.147Z,10.12
2023-04-29T02:50:29.087Z,10.14
2023-04-29T02:51:29.078Z,10.15
2023-04-29T02:52:29.227Z,10.11
2023-04-29T02:53:29.037Z,10.11
2023-04-29T02:54:29.037Z,10.14
2023-04-29T02:55:29.039Z,10.09
2023-04-29T02:56:29.012Z,10.07
2023-04-29T02:57:29.039Z,10.08
2023-04-29T02:58:29.006Z,10.08
2023-04-29T02:59:28.959Z,10.07
2023-04-29T03:00:28.956Z,10.07
2023-04-29T03:01:29.019Z,10.02
2023-04-29T03:02:29.009Z,10.05
2023-04-29T03:03:29.063Z,10.02
2023-04-29T03:04:28.994Z,10.04
2023-04-29T03:05:28.890Z,10.01
2023-04-29T03:06:28.915Z,10.05
2023-04-29T03:07:28.891Z,10.04
2023-04-29T03:08:28.912Z,10.04
2023-04-29T03:09:28.866Z,10.04
2023-04-29T03:10:28.821Z,10.02
2023-04-29T03:11:28.838Z,10.04
2023-04-29T03:12:28.850Z,10.04
2023-04-29T03:13:28.815Z,9.97
2023-04-29T03:14:28.769Z,10.02
2023-04-29T03:15:28.750Z,9.99
2023-04-29T03:16:28.861Z,9.99
2023-04-29T03:17:28.793Z,9.99
2023-04-29T03:18:28.728Z,9.97
2023-04-29T03:19:28.695Z,10.01
2023-04-29T03:20:28.695Z,10.01
2023-04-29T03:21:28.678Z,10.01
2023-04-29T03:22:28.729Z,10.02
2023-04-29T03:23:28.693Z,10.01
2023-04-29T03:24:28.651Z,9.99
2023-04-29T03:25:28.641Z,10.01
2023-04-29T03:26:28.633Z,10.01
2023-04-29T03:27:28.617Z,9.97
2023-04-29T03:28:28.594Z,9.96
2023-04-29T03:29:28.586Z,9.96
2023-04-29T03:30:28.571Z,9.94
2023-04-29T03:31:28.641Z,9.97
2023-04-29T03:32:28.545Z,9.96
2023-04-29T03:33:28.507Z,9.99
2023-04-29T03:34:28.567Z,9.96
2023-04-29T03:35:28.526Z,9.97
2023-04-29T03:36:28.500Z,9.96
2023-04-29T03:37:28.597Z,9.96
2023-04-29T03:38:28.437Z,9.96
2023-04-29T03:39:28.435Z,9.97
2023-04-29T03:40:28.443Z,10.01
2023-04-29T03:41:28.425Z,9.99
2023-04-29T03:42:28.385Z,9.97
2023-04-29T03:43:28.378Z,9.96
2023-04-29T03:44:28.393Z,9.99
2023-04-29T03:45:28.344Z,10.01
2023-04-29T03:46:28.374Z,9.97
2023-04-29T03:47:28.388Z,10.01
2023-04-29T03:48:28.297Z,9.99
2023-04-29T03:49:28.295Z,9.97
2023-04-29T03:50:28.371Z,9.97
2023-04-29T03:51:28.275Z,10.01
2023-04-29T03:52:28.332Z,9.94
2023-04-29T03:53:28.252Z,9.99
2023-04-29T03:54:28.280Z,9.97
2023-04-29T03:55:28.207Z,9.96
2023-04-29T03:56:28.212Z,9.97
2023-04-29T03:57:28.197Z,9.94
2023-04-29T03:58:28.180Z,9.96
2023-04-29T03:59:28.152Z,9.99
2023-04-29T04:00:28.219Z,9.93
2023-04-29T04:01:28.225Z,9.94
2023-04-29T04:02:28.457Z,9.94
2023-04-29T04:03:28.311Z,9.93
2023-04-29T04:04:28.312Z,9.93
2023-04-29T04:05:28.124Z,9.94
2023-04-29T04:06:28.079Z,9.94
2023-04-29T04:07:28.052Z,9.91
2023-04-29T04:08:28.082Z,9.93
2023-04-29T04:09:28.020Z,9.91
2023-04-29T04:10:28.040Z,9.91
2023-04-29T04:11:28.072Z,9.93
2023-04-29T04:12:28.067Z,9.93
2023-04-29T04:13:27.992Z,9.94
2023-04-29T04:14:27.981Z,9.90
2023-04-29T04:15:28.189Z,9.90
2023-04-29T04:16:28.021Z,9.90
2023-04-29T04:17:27.919Z,9.90
2023-04-29T04:18:27.920Z,9.91
2023-04-29T04:19:27.931Z,9.93
2023-04-29T04:20:27.889Z,9.91
2023-04-29T04:21:27.876Z,9.90
2023-04-29T04:22:27.885Z,9.94
2023-04-29T04:23:27.858Z,9.91
2023-04-29T04:24:27.855Z,9.90
2023-04-29T04:25:27.864Z,9.90
2023-04-29T04:26:27.811Z,9.89
2023-04-29T04:27:27.833Z,9.90
2023-04-29T04:28:27.838Z,9.90
2023-04-29T04:29:28.353Z,9.94
2023-04-29T04:30:27.758Z,9.89
2023-04-29T04:31:27.826Z,9.93
2023-04-29T04:32:27.754Z,9.93
2023-04-29T04:33:27.714Z,9.93
2023-04-29T04:34:27.701Z,9.93
2023-04-29T04:35:27.748Z,9.90
2023-04-29T04:36:27.774Z,9.91
2023-04-29T04:37:27.666Z,9.93
2023-04-29T04:38:27.649Z,9.91
2023-04-29T04:39:27.673Z,9.94
2023-04-29T04:40:27.630Z,9.96
2023-04-29T04:41:27.669Z,9.91
2023-04-29T04:42:27.635Z,9.93
2023-04-29T04:43:27.591Z,9.91
2023-04-29T04:44:27.601Z,9.90
2023-04-29T04:45:27.610Z,9.91
2023-04-29T04:46:27.542Z,9.96
2023-04-29T04:47:27.624Z,9.93
2023-04-29T04:48:27.556Z,9.97
2023-04-29T04:49:27.531Z,9.99
2023-04-29T04:50:27.520Z,9.96
2023-04-29T04:51:27.529Z,9.96
2023-04-29T04:52:27.533Z,9.96
2023-04-29T04:53:27.458Z,10.01
2023-04-29T04:54:27.482Z,10.01
2023-04-29T04:55:27.464Z,10.01
2023-04-29T04:56:27.436Z,10.02
2023-04-29T04:57:27.485Z,10.02
2023-04-29T04:58:27.415Z,10.01
2023-04-29T04:59:27.409Z,9.99
2023-04-29T05:00:27.415Z,10.01
2023-04-29T05:01:27.430Z,10.02
2023-04-29T05:02:27.478Z,10.04
2023-04-29T05:03:27.764Z,10.07
2023-04-29T05:04:35.948Z,10.02
2023-04-29T05:05:27.365Z,10.05
2023-04-29T05:06:27.443Z,10.05
2023-04-29T05:07:28.313Z,10.08
2023-04-29T05:08:27.722Z,10.09
2023-04-29T05:09:27.413Z,10.07
2023-04-29T05:10:27.370Z,10.08
2023-04-29T05:11:27.765Z,10.12
2023-04-29T05:12:27.885Z,10.11
2023-04-29T05:13:27.472Z,10.12
2023-04-29T05:14:27.540Z,10.12
2023-04-29T05:15:27.171Z,10.11
2023-04-29T05:16:27.617Z,10.12
2023-04-29T05:17:28.024Z,10.11
2023-04-29T05:18:27.470Z,10.07
2023-04-29T05:19:27.437Z,10.09
2023-04-29T05:20:27.099Z,10.12
2023-04-29T05:21:27.454Z,10.14
2023-04-29T05:22:27.117Z,10.15
2023-04-29T05:23:27.111Z,10.17
2023-04-29T05:24:27.181Z,10.14
2023-04-29T05:25:27.100Z,10.17
2023-04-29T05:26:27.529Z,10.20
2023-04-29T05:27:27.175Z,10.14
2023-04-29T05:28:28.218Z,10.17
2023-04-29T05:29:27.004Z,10.14
2023-04-29T05:30:28.410Z,10.12
2023-04-29T05:31:27.039Z,10.12
2023-04-29T05:32:27.111Z,10.15
2023-04-29T05:33:26.939Z,10.17
2023-04-29T05:34:26.920Z,10.18
2023-04-29T05:35:28.542Z,10.17
2023-04-29T05:36:26.939Z,10.22
2023-04-29T05:37:31.927Z,10.20
2023-04-29T05:38:27.078Z,10.18
2023-04-29T05:39:26.925Z,10.18
2023-04-29T05:40:26.848Z,10.17
2023-04-29T05:41:26.948Z,10.17
2023-04-29T05:42:26.958Z,10.17
2023-04-29T05:43:26.934Z,10.18
2023-04-29T05:44:26.774Z,10.18
2023-04-29T05:45:26.880Z,10.14
2023-04-29T05:46:26.947Z,10.14
2023-04-29T05:47:26.984Z,10.14
2023-04-29T05:48:27.440Z,10.14
2023-04-29T05:49:37.341Z,10.17
2023-04-29T05:50:27.311Z,10.15
2023-04-29T05:51:26.747Z,10.20
2023-04-29T05:52:26.715Z,10.18
2023-04-29T05:53:26.709Z,10.23
2023-04-29T05:54:26.671Z,10.25
2023-04-29T05:55:26.648Z,10.27
2023-04-29T05:56:26.649Z,10.26
2023-04-29T05:57:37.615Z,10.26
2023-04-29T05:58:35.730Z,10.26
2023-04-29T05:59:27.428Z,10.32
2023-04-29T06:00:27.858Z,10.29
2023-04-29T06:01:27.953Z,10.32
2023-04-29T06:04:03.603Z,10.40
2023-04-29T06:05:12.244Z,10.36
2023-04-29T06:06:03.184Z,10.38
2023-04-29T06:07:02.966Z,10.40
2023-04-29T06:08:03.022Z,10.38
2023-04-29T06:09:05.233Z,10.38
2023-04-29T06:10:04.075Z,10.42
2023-04-29T06:11:02.890Z,10.34
2023-04-29T06:12:03.236Z,10.34
2023-04-29T06:13:02.836Z,10.42
2023-04-29T06:14:04.127Z,10.41
2023-04-29T06:16:22.980Z,10.45
2023-04-29T06:17:23.267Z,10.45
2023-04-29T06:18:24.379Z,10.44
2023-04-29T06:19:22.867Z,10.42
2023-04-29T06:20:22.847Z,10.40
2023-04-29T06:21:23.052Z,10.36
2023-04-29T06:22:23.705Z,10.36
2023-04-29T06:23:22.855Z,10.38
2023-04-29T06:24:22.779Z,10.41
2023-04-29T06:25:24.148Z,10.44
2023-04-29T06:26:24.281Z,10.42
2023-04-29T06:27:22.860Z,10.42
2023-04-29T06:28:22.752Z,10.44
2023-04-29T06:29:23.108Z,10.44
2023-04-29T06:30:22.762Z,10.45
2023-04-29T06:31:23.331Z,10.48
2023-04-29T06:32:23.070Z,10.45
2023-04-29T06:33:24.221Z,10.48
2023-04-29T06:34:23.115Z,10.42
2023-04-29T06:35:22.680Z,10.42
2023-04-29T06:36:22.631Z,10.42
2023-04-29T06:37:22.706Z,10.41
2023-04-29T06:38:23.819Z,10.42
2023-04-29T06:39:22.591Z,10.40
2023-04-29T06:40:22.581Z,10.41
2023-04-29T06:41:22.562Z,10.41
2023-04-29T06:42:22.552Z,10.42
2023-04-29T06:43:22.536Z,10.47
2023-04-29T06:44:22.542Z,10.47
2023-04-29T06:45:22.491Z,10.48
2023-04-29T06:46:22.536Z,10.52
2023-04-29T06:47:22.501Z,10.55
2023-04-29T06:48:22.475Z,10.56
2023-04-29T06:49:22.435Z,10.56
2023-04-29T06:50:22.433Z,10.52
2023-04-29T06:51:22.518Z,10.59
2023-04-29T06:52:22.408Z,10.52
2023-04-29T06:53:22.417Z,10.53
2023-04-29T06:54:22.374Z,10.55
2023-04-29T06:55:22.486Z,10.59
2023-04-29T06:56:22.353Z,10.55
2023-04-29T06:57:22.358Z,10.52
2023-04-29T06:58:22.312Z,10.59
2023-04-29T06:59:22.372Z,10.59
2023-04-29T07:00:22.319Z,10.55
2023-04-29T07:01:22.309Z,10.63
2023-04-29T07:02:22.535Z,10.66
2023-04-29T07:03:22.416Z,10.64
2023-04-29T07:04:22.281Z,10.67
2023-04-29T07:05:22.282Z,10.68
2023-04-29T07:06:22.210Z,10.67
2023-04-29T07:07:30.247Z,10.70
2023-04-29T07:08:22.183Z,10.70
2023-04-29T07:09:22.396Z,10.71
2023-04-29T07:10:22.318Z,10.68
2023-04-29T07:11:22.140Z,10.67
2023-04-29T07:12:22.138Z,10.64
2023-04-29T07:13:22.229Z,10.63
2023-04-29T07:14:22.168Z,10.66
2023-04-29T07:15:22.080Z,10.63
2023-04-29T07:16:22.190Z,10.60
2023-04-29T07:17:22.113Z,10.60
2023-04-29T07:18:22.043Z,10.59
2023-04-29T07:19:22.036Z,10.60
2023-04-29T07:20:22.617Z,10.59
2023-04-29T07:21:22.066Z,10.59
2023-04-29T07:22:21.978Z,10.63
2023-04-29T07:23:21.996Z,10.66
2023-04-29T07:24:21.958Z,10.68
2023-04-29T07:25:21.981Z,10.66
2023-04-29T07:26:21.913Z,10.66
2023-04-29T07:27:21.913Z,10.66
2023-04-29T07:28:21.926Z,10.66
2023-04-29T07:29:21.920Z,10.64
2023-04-29T07:30:21.906Z,10.64
2023-04-29T07:31:22.203Z,10.66
2023-04-29T07:32:21.869Z,10.56
2023-04-29T07:33:21.875Z,10.55
2023-04-29T07:34:21.831Z,10.51
2023-04-29T07:35:21.805Z,10.51
2023-04-29T07:36:21.815Z,10.52
2023-04-29T07:37:21.849Z,10.48
2023-04-29T07:38:21.762Z,10.47
2023-04-29T07:39:21.820Z,10.47
2023-04-29T07:40:21.769Z,10.45
2023-04-29T07:41:21.713Z,10.48
2023-04-29T07:42:21.694Z,10.44
2023-04-29T07:43:21.808Z,10.45
2023-04-29T07:44:21.742Z,10.40
2023-04-29T07:45:21.694Z,10.47
2023-04-29T07:46:21.766Z,10.47
2023-04-29T07:47:21.767Z,10.52
2023-04-29T07:48:22.505Z,10.45
2023-04-29T07:49:21.614Z,10.45
2023-04-29T07:50:21.698Z,10.44
2023-04-29T07:51:21.644Z,10.44
2023-04-29T07:52:21.614Z,10.48
2023-04-29T07:53:21.787Z,10.47
2023-04-29T07:54:21.579Z,10.47
2023-04-29T07:55:21.605Z,10.47
2023-04-29T07:56:21.516Z,10.48
2023-04-29T07:57:21.516Z,10.52
2023-04-29T07:58:21.473Z,10.52
2023-04-29T07:59:21.474Z,10.56
2023-04-29T08:00:21.489Z,10.56
2023-04-29T08:01:21.746Z,10.61
2023-04-29T08:02:22.786Z,10.63
2023-04-29T08:03:22.374Z,10.66
2023-04-29T08:04:21.947Z,10.67
2023-04-29T08:05:21.619Z,10.64
2023-04-29T08:06:21.774Z,10.63
2023-04-29T08:07:21.370Z,10.64
2023-04-29T08:08:31.920Z,10.66
2023-04-29T08:09:22.899Z,10.64
2023-04-29T08:10:21.347Z,10.63
2023-04-29T08:11:21.378Z,10.61
2023-04-29T08:12:21.359Z,10.59
2023-04-29T08:13:21.316Z,10.63
2023-04-29T08:14:21.331Z,10.66
2023-04-29T08:15:21.363Z,10.60
2023-04-29T08:16:21.263Z,10.59
2023-04-29T08:17:21.286Z,10.60
2023-04-29T08:18:21.217Z,10.64
2023-04-29T08:19:21.306Z,10.61
2023-04-29T08:20:21.252Z,10.63
2023-04-29T08:21:21.180Z,10.64
2023-04-29T08:22:21.158Z,10.63
2023-04-29T08:23:21.140Z,10.67
2023-04-29T08:24:21.118Z,10.71
2023-04-29T08:25:21.129Z,10.74
2023-04-29T08:26:22.548Z,10.78
2023-04-29T08:27:21.080Z,10.81
2023-04-29T08:28:21.073Z,10.82
2023-04-29T08:29:21.057Z,10.81
2023-04-29T08:30:21.158Z,10.85
2023-04-29T08:31:21.099Z,10.81
2023-04-29T08:32:21.111Z,10.84
2023-04-29T08:33:21.066Z,10.82
2023-04-29T08:34:21.147Z,10.88
2023-04-29T08:35:21.050Z,10.89
2023-04-29T08:36:20.985Z,10.96
2023-04-29T08:37:20.989Z,11.00
2023-04-29T08:38:21.048Z,10.99
2023-04-29T08:39:21.002Z,10.99
2023-04-29T08:40:21.070Z,11.03
2023-04-29T08:41:20.915Z,11.00
2023-04-29T08:42:21.062Z,10.97
2023-04-29T08:43:20.880Z,10.99
2023-04-29T08:44:20.937Z,10.97
2023-04-29T08:45:20.944Z,10.92
2023-04-29T08:46:21.029Z,10.88
2023-04-29T08:47:20.919Z,10.88
2023-04-29T08:48:20.968Z,10.92
2023-04-29T08:49:20.842Z,10.92
2023-04-29T08:50:20.931Z,10.92
2023-04-29T08:51:20.919Z,10.97
2023-04-29T08:52:20.903Z,11.04
2023-04-29T08:53:20.851Z,11.07
2023-04-29T08:54:20.852Z,11.11
2023-04-29T08:55:20.762Z,11.17
2023-04-29T08:56:20.850Z,11.11
2023-04-29T08:57:20.724Z,11.14
2023-04-29T08:58:20.667Z,11.15
2023-04-29T08:59:20.671Z,11.14
2023-04-29T09:00:20.656Z,11.07
2023-04-29T09:01:20.654Z,11.04
2023-04-29T09:02:20.730Z,11.03
2023-04-29T09:03:22.058Z,11.04
2023-04-29T09:04:20.889Z,11.07
2023-04-29T09:05:20.621Z,11.04
2023-04-29T09:06:20.631Z,11.03
2023-04-29T09:07:20.723Z,11.10
2023-04-29T09:08:20.640Z,11.10
2023-04-29T09:09:21.083Z,11.09
2023-04-29T09:10:20.689Z,11.11
2023-04-29T09:11:20.570Z,11.18
2023-04-29T09:12:20.538Z,11.22
2023-04-29T09:13:20.528Z,11.24
2023-04-29T09:14:20.644Z,11.24
2023-04-29T09:15:20.567Z,11.25
2023-04-29T09:16:20.572Z,11.25
2023-04-29T09:17:20.501Z,11.27
2023-04-29T09:18:20.498Z,11.27
2023-04-29T09:19:21.340Z,11.28
2023-04-29T09:20:20.469Z,11.25
2023-04-29T09:21:21.954Z,11.33
2023-04-29T09:22:20.452Z,11.35
2023-04-29T09:23:20.402Z,11.37
2023-04-29T09:24:20.431Z,11.43
2023-04-29T09:25:20.324Z,11.47
2023-04-29T09:26:20.473Z,11.49
2023-04-29T09:27:20.455Z,11.54
2023-04-29T09:28:20.335Z,11.58
2023-04-29T09:29:20.391Z,11.57
2023-04-29T09:30:20.277Z,11.52
2023-04-29T09:31:20.307Z,11.49
2023-04-29T09:32:20.276Z,11.44
2023-04-29T09:33:20.252Z,11.43
2023-04-29T09:34:20.211Z,11.46
2023-04-29T09:35:20.360Z,11.51
2023-04-29T09:36:20.415Z,11.49
2023-04-29T09:37:20.160Z,11.55
2023-04-29T09:38:20.259Z,11.57
2023-04-29T09:39:20.269Z,11.64
2023-04-29T09:40:20.225Z,11.64
2023-04-29T09:41:20.413Z,11.65
2023-04-29T09:42:20.162Z,11.65
2023-04-29T09:43:20.195Z,11.67
2023-04-29T09:44:20.088Z,11.62
2023-04-29T09:45:20.142Z,11.62
2023-04-29T09:46:20.145Z,11.69
2023-04-29T09:47:20.007Z,11.73
2023-04-29T09:48:20.021Z,11.78
2023-04-29T09:49:19.985Z,11.79
2023-04-29T09:50:20.102Z,11.80
2023-04-29T09:51:20.275Z,11.90
2023-04-29T09:52:20.003Z,11.99
2023-04-29T09:53:20.035Z,12.05
2023-04-29T09:54:20.023Z,12.04
2023-04-29T09:55:20.094Z,12.04
2023-04-29T09:56:20.232Z,12.05
2023-04-29T09:57:19.980Z,12.10
2023-04-29T09:58:19.899Z,12.12
2023-04-29T09:59:25.957Z,12.13
2023-04-29T10:00:20.924Z,12.16
2023-04-29T10:01:19.888Z,12.17
2023-04-29T10:02:19.947Z,12.20
2023-04-29T10:03:20.140Z,12.19
2023-04-29T10:04:19.816Z,12.21
2023-04-29T10:05:19.807Z,12.28
2023-04-29T10:06:19.776Z,12.34
2023-04-29T10:07:19.804Z,12.35
2023-04-29T10:08:19.900Z,12.38
2023-04-29T10:09:19.695Z,12.31
2023-04-29T10:10:19.695Z,12.32
2023-04-29T10:11:19.685Z,12.32
2023-04-29T10:12:19.756Z,12.32
2023-04-29T10:13:19.691Z,12.35
2023-04-29T10:14:19.673Z,12.39
2023-04-29T10:15:20.383Z,12.38
2023-04-29T10:16:19.621Z,12.41
2023-04-29T10:17:19.625Z,12.47
2023-04-29T10:18:19.691Z,12.53
2023-04-29T10:19:19.514Z,12.60
2023-04-29T10:20:19.494Z,12.67
2023-04-29T10:21:19.510Z,12.75
2023-04-29T10:22:19.641Z,12.78
2023-04-29T10:23:19.547Z,12.75
2023-04-29T10:24:19.526Z,12.78
2023-04-29T10:25:19.784Z,12.97
2023-04-29T10:26:19.567Z,12.93
2023-04-29T10:27:19.466Z,12.82
2023-04-29T10:28:19.394Z,12.86
2023-04-29T10:29:19.449Z,12.86
2023-04-29T10:30:19.645Z,12.93
2023-04-29T10:31:19.482Z,13.05
2023-04-29T10:32:19.417Z,13.20
2023-04-29T10:33:19.436Z,13.33
2023-04-29T10:34:19.425Z,13.45
2023-04-29T10:35:19.549Z,13.45
2023-04-29T10:36:19.303Z,13.44
2023-04-29T10:37:19.279Z,13.48
2023-04-29T10:38:19.418Z,13.41
2023-04-29T10:39:19.514Z,13.38
2023-04-29T10:40:19.341Z,13.44
2023-04-29T10:41:19.200Z,13.46
2023-04-29T10:42:19.223Z,13.57
2023-04-29T10:43:19.172Z,13.59
2023-04-29T10:44:19.195Z,13.60
2023-04-29T10:45:19.185Z,13.69
2023-04-29T10:46:19.190Z,13.78
2023-04-29T10:47:19.124Z,13.78
2023-04-29T10:48:19.187Z,13.82
2023-04-29T10:49:19.104Z,13.91
2023-04-29T10:50:19.092Z,13.95
2023-04-29T10:51:19.089Z,13.91
2023-04-29T10:52:19.148Z,13.96
2023-04-29T10:53:19.130Z,13.81
2023-04-29T10:54:19.049Z,13.82
2023-04-29T10:55:19.052Z,13.73
2023-04-29T10:56:19.024Z,13.87
2023-04-29T10:57:19.038Z,13.97
2023-04-29T10:58:18.988Z,14.09
2023-04-29T10:59:18.999Z,14.17
2023-04-29T11:00:19.011Z,14.17
2023-04-29T11:01:19.075Z,13.88
2023-04-29T11:02:18.941Z,13.82
2023-04-29T11:03:19.062Z,13.81
2023-04-29T11:04:19.091Z,13.69
2023-04-29T11:05:18.992Z,13.60
2023-04-29T11:06:18.942Z,13.48
2023-04-29T11:07:18.894Z,13.46
2023-04-29T11:08:18.887Z,13.52
2023-04-29T11:09:18.859Z,13.54
2023-04-29T11:10:18.893Z,13.51
2023-04-29T11:11:19.091Z,13.60
2023-04-29T11:12:21.448Z,13.77
2023-04-29T11:13:18.820Z,13.89
2023-04-29T11:14:18.821Z,13.99
2023-04-29T11:15:18.774Z,14.15
2023-04-29T11:16:18.808Z,14.22
2023-04-29T11:17:18.758Z,14.33
2023-04-29T11:18:18.805Z,14.36
2023-04-29T11:19:18.876Z,14.43
2023-04-29T11:20:18.717Z,14.43
2023-04-29T11:21:18.719Z,14.43
2023-04-29T11:22:18.722Z,14.55
2023-04-29T11:23:18.710Z,14.60
2023-04-29T11:24:18.745Z,14.68
2023-04-29T11:25:18.643Z,14.83
2023-04-29T11:26:18.646Z,14.92
2023-04-29T11:27:18.718Z,15.02
2023-04-29T11:28:18.622Z,14.99
2023-04-29T11:29:18.579Z,15.07
2023-04-29T11:30:18.633Z,15.02
2023-04-29T11:31:18.581Z,14.95
2023-04-29T11:32:18.620Z,15.07
2023-04-29T11:33:18.653Z,15.31
2023-04-29T11:34:18.534Z,15.59
2023-04-29T11:35:18.547Z,15.49
2023-04-29T11:36:18.504Z,15.47
2023-04-29T11:37:18.482Z,15.64
2023-04-29T11:38:18.497Z,15.82
2023-04-29T11:39:18.450Z,15.83
2023-04-29T11:40:19.970Z,15.69
2023-04-29T11:41:18.433Z,16.01
2023-04-29T11:42:18.431Z,16.00
2023-04-29T11:43:18.428Z,15.60
2023-04-29T11:44:18.416Z,15.47
2023-04-29T11:45:18.337Z,15.34
2023-04-29T11:46:18.451Z,15.21
2023-04-29T11:47:18.444Z,15.17
2023-04-29T11:48:18.372Z,15.39
2023-04-29T11:49:18.312Z,15.39
2023-04-29T11:50:18.473Z,15.29
2023-04-29T11:51:18.296Z,14.92
2023-04-29T11:52:18.253Z,14.70
2023-04-29T11:53:18.262Z,14.68
2023-04-29T11:54:18.322Z,14.78
2023-04-29T11:55:18.241Z,14.84
2023-04-29T11:56:18.253Z,15.03
2023-04-29T11:57:18.176Z,15.39
2023-04-29T11:58:18.260Z,15.62
2023-04-29T11:59:18.154Z,16.24
2023-04-29T12:00:18.222Z,17.07
2023-04-29T12:01:18.152Z,18.14
2023-04-29T12:02:18.195Z,18.52
2023-04-29T12:03:18.298Z,18.17
2023-04-29T12:04:18.948Z,17.75
2023-04-29T12:05:18.370Z,17.15
2023-04-29T12:06:18.094Z,17.14
2023-04-29T12:07:18.066Z,17.34
2023-04-29T12:08:18.037Z,17.16
2023-04-29T12:09:18.036Z,17.08
2023-04-29T12:10:18.033Z,16.98
2023-04-29T12:11:18.025Z,16.70
2023-04-29T12:12:18.011Z,16.45
2023-04-29T12:13:17.985Z,16.20
2023-04-29T12:14:18.062Z,16.07
2023-04-29T12:15:17.972Z,16.00
2023-04-29T12:16:18.015Z,16.02
2023-04-29T12:17:17.945Z,15.96
2023-04-29T12:18:17.962Z,15.97
2023-04-29T12:19:17.904Z,15.89
2023-04-29T12:20:17.963Z,15.89
2023-04-29T12:21:17.904Z,15.76
2023-04-29T12:22:17.896Z,15.69
2023-04-29T12:23:17.900Z,15.62
2023-04-29T12:24:17.887Z,15.53
2023-04-29T12:25:17.873Z,15.50
2023-04-29T12:26:17.837Z,15.53
2023-04-29T12:27:17.818Z,15.54
2023-04-29T12:28:17.824Z,15.41
2023-04-29T12:29:17.798Z,15.32
2023-04-29T12:30:17.823Z,15.20
2023-04-29T12:31:17.900Z,15.16
2023-04-29T12:32:17.783Z,15.02
2023-04-29T12:33:17.728Z,15.07
2023-04-29T12:34:17.731Z,15.02
2023-04-29T12:35:17.750Z,15.02
2023-04-29T12:36:17.720Z,14.98
2023-04-29T12:37:17.712Z,14.95
2023-04-29T12:38:17.695Z,14.92
2023-04-29T12:39:17.667Z,14.89
2023-04-29T12:40:17.645Z,14.86
2023-04-29T12:41:17.720Z,14.84
2023-04-29T12:42:17.630Z,14.91
2023-04-29T12:43:17.589Z,14.86
2023-04-29T12:44:17.629Z,14.81
2023-04-29T12:45:17.557Z,14.84
2023-04-29T12:46:17.662Z,14.86
2023-04-29T12:47:17.642Z,14.83
2023-04-29T12:48:28.811Z,14.88
2023-04-29T12:49:18.567Z,14.89
2023-04-29T12:50:17.555Z,14.84
2023-04-29T12:51:17.503Z,14.86
2023-04-29T12:52:17.518Z,14.78
2023-04-29T12:53:17.494Z,14.78
2023-04-29T12:54:17.496Z,14.75
2023-04-29T12:55:17.445Z,14.78
2023-04-29T12:56:17.475Z,14.81
2023-04-29T12:57:17.403Z,14.88
2023-04-29T12:58:17.423Z,14.86